Time;durP1;ratioP1;P1;durP2;ratioP2;P2;SDS_P1;SDS_P2;PMS_P1;PMS_P2;Temp;Humidity;BMP_temperature;BMP_pressure;BME280_temperature;BME280_humidity;BME280_pressure;Samples;Min_cycle;Max_cycle;Signal;HPM_P1;HPM_P2
2022/12/30 00:01:59;;;;;;;12.20;5.03;;;;;;;11.33;62.95;97336.28;5061087;28;20228;-69
2022/12/30 00:04:25;;;;;;;26.67;10.87;;;;;;;11.35;62.69;97334.28;5057023;28;20179;-68
2022/12/30 00:06:50;;;;;;;12.13;5.47;;;;;;;11.32;62.42;97335.44;5058704;28;20193;-71
2022/12/30 00:09:15;;;;;;;22.57;10.10;;;;;;;11.32;62.63;97338.06;5056949;28;20269;-70
2022/12/30 00:11:41;;;;;;;3.90;2.10;;;;;;;11.33;61.94;97337.09;5064108;28;20183;-68
2022/12/30 00:34:16;;;;;;;2.00;1.33;;;;;;;11.17;62.53;97356.16;5056233;28;20528;-70
2022/12/30 00:36:43;;;;;;;2.13;1.03;;;;;;;11.16;62.95;97359.75;5058593;28;20437;-70
2022/12/30 00:39:08;;;;;;;1.67;0.93;;;;;;;11.17;63.08;97358.78;5054453;28;20418;-69
2022/12/30 00:44:18;;;;;;;1.63;0.90;;;;;;;11.16;62.93;97364.16;5055081;28;20245;-72
2022/12/30 00:46:44;;;;;;;1.40;0.70;;;;;;;11.14;63.22;97369.56;5063620;28;20445;-72
2022/12/30 00:57:21;;;;;;;0.90;0.67;;;;;;;10.94;63.22;97357.63;5054617;28;20456;-72
2022/12/30 00:59:47;;;;;;;1.40;0.80;;;;;;;10.95;63.59;97359.25;5056417;28;20972;-72
2022/12/30 01:02:12;;;;;;;1.00;0.87;;;;;;;10.99;63.64;97352.72;5061042;28;20269;-71
2022/12/30 01:04:38;;;;;;;0.97;0.70;;;;;;;10.85;63.89;97365.38;5055729;28;20258;-72
2022/12/30 01:07:03;;;;;;;1.53;0.83;;;;;;;10.86;63.89;97366.22;5057557;28;20206;-73
2022/12/30 01:09:28;;;;;;;1.10;1.00;;;;;;;10.84;64.04;97374.22;5054969;28;20253;-73
2022/12/30 01:12:09;;;;;;;1.47;0.70;;;;;;;10.87;63.96;97368.69;5062395;28;20202;-72
2022/12/30 01:14:35;;;;;;;1.37;0.90;;;;;;;10.88;63.77;97372.16;5051313;28;20186;-71
2022/12/30 01:17:02;;;;;;;3.00;0.70;;;;;;;10.85;63.85;97372.44;5055875;28;20460;-71
2022/12/30 01:19:27;;;;;;;1.27;0.80;;;;;;;10.87;63.96;97387.03;5066494;28;20413;-72
2022/12/30 01:21:52;;;;;;;1.10;0.90;;;;;;;10.91;64.15;97384.94;5055683;28;20425;-74
2022/12/30 01:24:18;;;;;;;1.10;1.00;;;;;;;10.97;63.83;97388.75;5053994;28;20205;-73
2022/12/30 01:26:43;;;;;;;3.30;0.70;;;;;;;11.02;63.97;97383.91;5054317;28;20199;-71
2022/12/30 01:29:09;;;;;;;2.30;0.80;;;;;;;11.04;63.53;97384.56;5057936;28;20546;-70
2022/12/30 01:31:34;;;;;;;1.17;0.60;;;;;;;10.96;63.15;97398.44;5053023;28;20278;-72
2022/12/30 01:34:00;;;;;;;2.50;0.80;;;;;;;10.97;63.33;97397.47;5056183;28;20274;-72
2022/12/30 01:36:25;;;;;;;0.93;0.77;;;;;;;11.01;63.32;97405.84;5060140;28;20205;-71
2022/12/30 01:38:50;;;;;;;2.30;1.00;;;;;;;11.01;63.38;97401.44;5055210;28;20218;-72
2022/12/30 01:41:16;;;;;;;1.00;0.80;;;;;;;11.01;63.17;97403.22;5060780;28;20254;-72
2022/12/30 01:43:47;;;;;;;4.10;0.90;;;;;;;11.00;63.41;97412.91;5053089;28;20229;-73
2022/12/30 01:46:17;;;;;;;1.50;0.90;;;;;;;10.95;63.29;97411.72;5063156;28;20183;-73
2022/12/30 01:48:43;;;;;;;1.20;0.80;;;;;;;10.96;63.50;97421.22;5052176;28;21069;-73
2022/12/30 01:51:13;;;;;;;1.67;0.90;;;;;;;10.97;63.37;97425.47;5055732;28;20422;-73
2022/12/30 01:53:41;;;;;;;1.30;1.10;;;;;;;11.02;63.49;97426.69;5053911;28;20301;-73
2022/12/30 01:56:11;;;;;;;1.00;0.80;;;;;;;10.96;62.89;97427.28;5052989;28;20424;-72
2022/12/30 01:58:52;;;;;;;1.33;0.80;;;;;;;10.96;63.08;97431.72;5055195;28;20459;-72
2022/12/30 02:01:17;;;;;;;1.83;1.10;;;;;;;10.91;63.58;97419.88;5058578;28;20425;-71
2022/12/30 02:03:45;;;;;;;1.30;0.90;;;;;;;10.82;63.85;97409.44;5062749;28;20887;-71
2022/12/30 02:06:17;;;;;;;0.83;0.60;;;;;;;10.70;63.77;97427.19;5056917;28;20219;-72
2022/12/30 02:08:42;;;;;;;1.57;1.20;;;;;;;10.66;63.91;97426.66;5066180;28;20509;-72
2022/12/30 02:11:08;;;;;;;0.90;0.70;;;;;;;10.51;64.63;97428.94;5066060;28;20511;-72
2022/12/30 02:13:33;;;;;;;1.03;0.70;;;;;;;10.45;64.67;97422.50;5054379;28;20221;-73
2022/12/30 02:16:11;;;;;;;4.63;0.80;;;;;;;10.54;64.46;97418.19;5060535;28;20610;-74
2022/12/30 02:19:18;;;;;;;1.37;0.90;;;;;;;10.53;64.39;97413.91;5054270;28;20654;-73
2022/12/30 02:21:58;;;;;;;1.10;0.70;;;;;;;10.58;64.55;97397.72;5050991;28;20409;-73
2022/12/30 02:25:06;;;;;;;1.00;0.80;;;;;;;10.44;64.66;97397.25;5056748;28;20413;-72
2022/12/30 02:27:55;;;;;;;0.90;0.70;;;;;;;10.44;64.77;97410.34;5029543;28;20937;-73
2022/12/30 02:30:28;;;;;;;1.30;0.80;;;;;;;10.49;64.36;97415.16;5053504;28;20944;-71
2022/12/30 02:32:59;;;;;;;1.30;0.93;;;;;;;10.52;64.43;97420.13;5058666;28;20463;-72
2022/12/30 02:35:37;;;;;;;1.23;0.90;;;;;;;10.50;64.01;97416.81;5061073;28;20416;-73
2022/12/30 02:38:14;;;;;;;0.90;0.70;;;;;;;10.53;64.00;97408.66;5059851;28;20468;-73
2022/12/30 02:46:23;;;;;;;1.20;0.90;;;;;;;10.48;63.71;97429.22;5063226;28;20951;-73
2022/12/30 02:48:49;;;;;;;1.43;0.87;;;;;;;10.46;63.75;97425.94;5055032;28;20464;-72
2022/12/30 02:54:00;;;;;;;1.60;1.00;;;;;;;10.49;63.81;97441.38;5058354;28;20461;-72
2022/12/30 02:56:26;;;;;;;0.97;0.70;;;;;;;10.50;63.44;97432.53;5053198;28;20495;-73
2022/12/30 03:04:50;;;;;;;1.20;0.70;;;;;;;10.52;62.82;97441.06;5057165;28;20420;-72
2022/12/30 03:07:32;;;;;;;1.63;0.77;;;;;;;10.47;62.94;97439.88;5060163;28;20440;-72
2022/12/30 03:13:12;;;;;;;1.27;0.60;;;;;;;10.41;62.70;97449.13;5057422;28;20444;-70
2022/12/30 03:15:47;;;;;;;1.83;0.87;;;;;;;10.39;62.69;97454.53;5066039;28;20423;-71
2022/12/30 03:18:13;;;;;;;0.90;0.60;;;;;;;10.39;62.43;97451.91;5062651;28;20498;-71
2022/12/30 03:20:40;;;;;;;1.60;1.00;;;;;;;10.30;62.13;97447.50;5055371;28;20803;-71
2022/12/30 03:28:36;;;;;;;1.07;0.70;;;;;;;10.37;62.27;97460.84;5045227;28;20512;-72
2022/12/30 03:31:05;;;;;;;1.57;0.83;;;;;;;10.30;62.45;97456.19;5055372;28;20449;-72
2022/12/30 03:33:31;;;;;;;2.07;0.70;;;;;;;10.22;62.32;97450.00;5052454;28;20539;-72
2022/12/30 03:36:05;;;;;;;1.53;0.63;;;;;;;10.18;61.94;97457.34;5051298;28;20865;-73
2022/12/30 03:38:34;;;;;;;3.37;0.90;;;;;;;10.13;62.07;97456.94;5036426;28;20245;-72
2022/12/30 03:41:01;;;;;;;1.10;0.70;;;;;;;10.08;62.45;97456.56;5054818;28;20498;-73
2022/12/30 03:43:27;;;;;;;1.87;0.80;;;;;;;10.04;62.46;97444.69;5068452;28;20413;-71
2022/12/30 03:45:53;;;;;;;0.90;0.70;;;;;;;9.99;62.42;97453.81;5052050;28;20425;-72
2022/12/30 03:48:19;;;;;;;1.87;0.90;;;;;;;9.92;62.48;97454.50;5050690;28;20208;-71
2022/12/30 03:50:45;;;;;;;1.37;0.83;;;;;;;9.89;62.71;97453.00;5052220;28;20492;-73
2022/12/30 03:53:10;;;;;;;0.90;0.70;;;;;;;9.92;62.71;97457.97;5052097;28;20203;-73
2022/12/30 03:55:35;;;;;;;1.90;0.80;;;;;;;10.02;62.13;97449.25;5050629;28;20500;-73
2022/12/30 03:58:01;;;;;;;2.13;1.00;;;;;;;9.90;62.58;97449.44;5051345;28;20203;-72
2022/12/30 04:00:26;;;;;;;1.40;0.77;;;;;;;9.96;61.95;97451.47;5051719;28;20631;-72
2022/12/30 04:02:52;;;;;;;1.73;0.80;;;;;;;9.95;61.91;97439.38;5051621;28;20726;-72
2022/12/30 04:05:17;;;;;;;1.90;0.77;;;;;;;9.94;62.00;97440.34;5067045;28;20233;-73
2022/12/30 04:07:43;;;;;;;1.00;0.70;;;;;;;9.78;62.21;97440.91;5051338;28;20190;-74
2022/12/30 04:10:08;;;;;;;1.53;0.80;;;;;;;9.85;62.05;97433.31;5048731;28;20197;-72
2022/12/30 04:12:34;;;;;;;1.10;0.70;;;;;;;9.88;62.12;97426.97;5038549;28;20428;-73
2022/12/30 04:14:59;;;;;;;2.10;0.93;;;;;;;9.82;61.93;97433.63;5045511;28;20262;-73
2022/12/30 04:17:25;;;;;;;1.20;0.80;;;;;;;9.84;61.95;97431.66;5062386;28;20341;-71
2022/12/30 04:19:50;;;;;;;1.30;0.70;;;;;;;9.90;61.83;97427.63;5052057;28;20532;-71
2022/12/30 04:22:16;;;;;;;1.63;0.70;;;;;;;9.84;62.10;97423.81;5050394;28;20214;-72
2022/12/30 04:24:41;;;;;;;0.90;0.63;;;;;;;9.83;61.84;97433.47;5059154;28;20178;-72
2022/12/30 04:27:07;;;;;;;1.20;0.80;;;;;;;9.87;61.77;97438.41;5050074;28;20285;-72
2022/12/30 04:29:32;;;;;;;4.20;0.70;;;;;;;9.83;61.72;97435.25;5053534;28;20171;-72
2022/12/30 04:31:58;;;;;;;1.00;0.60;;;;;;;9.89;61.41;97426.03;5057676;28;20252;-72
2022/12/30 04:34:23;;;;;;;1.57;0.70;;;;;;;9.87;61.33;97434.00;5050795;28;20298;-71
2022/12/30 04:36:49;;;;;;;0.80;0.60;;;;;;;9.75;61.54;97425.50;5049819;28;20691;-72
2022/12/30 04:39:14;;;;;;;1.23;1.13;;;;;;;9.68;61.81;97434.88;5055022;28;20187;-72
2022/12/30 04:41:40;;;;;;;1.07;0.70;;;;;;;9.63;61.84;97437.91;5052096;28;20175;-73
2022/12/30 04:44:06;;;;;;;1.30;0.70;;;;;;;9.71;61.60;97434.59;5055387;28;20195;-72
2022/12/30 04:46:32;;;;;;;1.30;0.70;;;;;;;9.78;61.75;97433.06;5054397;28;20176;-73
2022/12/30 04:48:57;;;;;;;1.57;0.70;;;;;;;9.78;61.25;97429.63;5057234;28;20444;-73
2022/12/30 04:51:23;;;;;;;2.43;0.70;;;;;;;9.77;61.24;97422.72;5051334;28;20425;-73
2022/12/30 04:53:48;;;;;;;1.63;0.73;;;;;;;9.73;61.16;97422.19;5065780;28;20207;-72
2022/12/30 04:56:14;;;;;;;1.00;0.87;;;;;;;9.73;61.05;97426.59;5048888;28;20175;-72
2022/12/30 04:58:39;;;;;;;1.60;0.90;;;;;;;9.71;61.54;97423.28;5058074;28;20258;-73
2022/12/30 05:01:05;;;;;;;0.90;0.70;;;;;;;9.70;61.41;97432.94;5049155;28;20194;-72
2022/12/30 05:03:30;;;;;;;0.93;0.80;;;;;;;9.68;61.16;97435.72;5049229;28;20349;-72
2022/12/30 05:05:56;;;;;;;1.00;0.60;;;;;;;9.65;61.25;97429.91;5050278;28;20270;-73
2022/12/30 05:08:22;;;;;;;1.30;1.00;;;;;;;9.63;61.23;97430.06;5057564;28;20210;-73
2022/12/30 05:10:47;;;;;;;1.10;0.73;;;;;;;9.65;61.01;97441.22;5055816;28;20175;-72
2022/12/30 05:13:13;;;;;;;1.23;0.70;;;;;;;9.62;60.86;97444.09;5050534;28;20256;-73
2022/12/30 05:15:38;;;;;;;1.10;0.80;;;;;;;9.58;60.92;97437.50;5050268;28;20254;-72
2022/12/30 05:18:04;;;;;;;1.00;0.63;;;;;;;9.63;60.99;97442.34;5055746;28;20301;-71
2022/12/30 05:20:29;;;;;;;0.80;0.53;;;;;;;9.56;60.42;97436.84;5049896;28;20178;-71
2022/12/30 05:22:54;;;;;;;1.60;0.80;;;;;;;9.43;61.60;97433.69;5050739;28;20181;-71
2022/12/30 05:28:04;;;;;;;1.20;0.80;;;;;;;9.29;61.47;97435.75;5049850;28;20666;-71
2022/12/30 05:30:29;;;;;;;1.10;0.80;;;;;;;9.34;61.46;97433.53;5049679;28;20500;-71
2022/12/30 05:32:55;;;;;;;1.43;0.80;;;;;;;9.34;61.21;97433.53;5048787;28;20561;-73
2022/12/30 05:35:20;;;;;;;0.93;0.73;;;;;;;9.29;61.23;97430.53;5058212;28;20266;-72
2022/12/30 05:37:46;;;;;;;1.17;0.70;;;;;;;9.23;60.82;97438.91;5049624;28;20218;-71
2022/12/30 05:40:12;;;;;;;1.30;0.80;;;;;;;9.26;61.01;97440.44;5049657;28;20202;-73
2022/12/30 05:42:37;;;;;;;1.00;0.80;;;;;;;9.25;60.94;97433.56;5056633;28;20179;-70
2022/12/30 05:45:04;;;;;;;1.20;0.80;;;;;;;9.27;60.99;97436.84;5049561;28;20429;-73
2022/12/30 05:47:29;;;;;;;1.23;0.90;;;;;;;9.27;61.40;97442.91;5051733;28;20202;-71
2022/12/30 05:49:55;;;;;;;4.40;0.70;;;;;;;9.30;60.83;97436.56;5054121;28;20505;-71
2022/12/30 05:52:20;;;;;;;0.90;0.73;;;;;;;9.27;60.67;97436.84;5056066;28;20197;-72
2022/12/30 05:54:46;;;;;;;0.90;0.63;;;;;;;9.23;60.86;97433.69;5059447;28;20184;-73
2022/12/30 05:57:11;;;;;;;1.13;0.70;;;;;;;9.16;61.03;97424.75;5053391;28;20840;-71
2022/12/30 05:59:37;;;;;;;1.20;0.70;;;;;;;9.18;60.83;97428.06;5057791;28;20174;-71
2022/12/30 06:02:02;;;;;;;1.00;0.70;;;;;;;9.14;61.03;97431.91;5053553;28;20187;-74
2022/12/30 06:04:28;;;;;;;1.07;0.80;;;;;;;9.15;60.73;97433.56;5052778;28;20180;-73
2022/12/30 06:06:53;;;;;;;2.50;1.80;;;;;;;9.12;60.78;97439.03;5052827;28;20322;-71
2022/12/30 06:09:19;;;;;;;2.80;2.17;;;;;;;9.12;60.66;97436.44;5061628;28;20179;-73
2022/12/30 06:11:45;;;;;;;0.90;0.80;;;;;;;9.01;61.28;97448.69;5055065;28;20229;-72
2022/12/30 06:14:12;;;;;;;1.40;1.00;;;;;;;9.05;61.00;97444.84;5053248;28;20674;-71
2022/12/30 06:16:37;;;;;;;1.97;0.87;;;;;;;9.06;61.08;97446.50;5053095;28;20238;-72
2022/12/30 06:19:03;;;;;;;1.17;1.03;;;;;;;9.04;61.37;97448.41;5053903;28;20495;-73
2022/12/30 06:21:28;;;;;;;1.20;1.00;;;;;;;9.13;60.63;97443.31;5050154;28;20197;-72
2022/12/30 06:23:54;;;;;;;1.93;1.00;;;;;;;9.17;60.28;97439.47;5053574;28;20179;-72
2022/12/30 06:26:19;;;;;;;1.63;0.93;;;;;;;9.13;60.75;97427.63;5053352;28;20681;-72
2022/12/30 06:28:44;;;;;;;2.73;0.90;;;;;;;9.14;60.63;97424.06;5053757;28;20654;-71
2022/12/30 06:31:10;;;;;;;1.23;1.13;;;;;;;9.12;60.69;97428.59;5052993;28;20650;-72
2022/12/30 06:33:36;;;;;;;1.20;1.00;;;;;;;9.06;60.44;97436.03;5053631;28;20860;-73
2022/12/30 06:36:01;;;;;;;1.80;1.13;;;;;;;9.02;60.85;97434.66;5053600;28;20187;-74
2022/12/30 06:38:26;;;;;;;2.60;1.83;;;;;;;9.06;60.84;97432.59;5052723;28;20214;-73
2022/12/30 06:40:52;;;;;;;2.37;1.80;;;;;;;9.00;60.08;97433.97;5055426;28;20197;-71
2022/12/30 06:43:17;;;;;;;2.67;1.33;;;;;;;8.89;60.25;97428.84;5058859;28;20202;-71
2022/12/30 06:45:43;;;;;;;1.40;1.20;;;;;;;8.88;60.81;97437.66;5053098;28;20179;-72
2022/12/30 06:48:08;;;;;;;2.23;1.10;;;;;;;8.81;61.19;97428.72;5052640;28;20287;-74
2022/12/30 06:50:34;;;;;;;1.20;1.10;;;;;;;8.75;61.06;97428.28;5053633;28;20183;-72
2022/12/30 06:52:59;;;;;;;1.47;1.20;;;;;;;8.66;61.11;97423.03;5053281;28;20595;-74
2022/12/30 06:55:25;;;;;;;1.53;1.40;;;;;;;8.61;60.92;97426.06;5052987;28;20183;-72
2022/12/30 06:57:50;;;;;;;1.40;1.00;;;;;;;8.59;61.04;97427.97;5052602;28;20213;-72
2022/12/30 07:00:16;;;;;;;4.90;1.27;;;;;;;8.58;60.67;97427.16;5052330;28;20554;-73
2022/12/30 07:02:41;;;;;;;1.00;0.90;;;;;;;8.62;60.87;97425.09;5053096;28;20232;-72
2022/12/30 07:05:07;;;;;;;1.07;0.97;;;;;;;8.53;60.75;97428.53;5052235;28;20279;-72
2022/12/30 07:07:33;;;;;;;1.60;1.10;;;;;;;8.56;60.97;97433.50;5052828;28;20194;-71
2022/12/30 07:09:59;;;;;;;1.67;1.10;;;;;;;8.63;61.19;97439.81;5057472;28;20417;-72
2022/12/30 07:12:24;;;;;;;1.07;0.80;;;;;;;8.71;61.21;97432.13;5068645;28;20187;-72
2022/12/30 07:14:50;;;;;;;1.63;1.00;;;;;;;8.73;61.05;97442.47;5052481;28;20200;-73
2022/12/30 07:17:15;;;;;;;1.20;1.10;;;;;;;8.68;61.23;97440.25;5051980;28;20648;-71
2022/12/30 07:19:41;;;;;;;3.00;1.30;;;;;;;8.64;60.87;97441.47;5053532;28;20182;-71
2022/12/30 07:22:06;;;;;;;3.80;1.27;;;;;;;8.59;60.19;97433.19;5052139;28;20314;-72
2022/12/30 07:24:31;;;;;;;1.80;1.30;;;;;;;8.57;60.89;97427.28;5052541;28;20176;-72
2022/12/30 07:26:57;;;;;;;1.93;1.40;;;;;;;8.56;60.63;97431.69;5052565;28;20602;-71
2022/12/30 07:29:22;;;;;;;1.10;1.00;;;;;;;8.54;60.79;97427.56;5052004;28;20239;-72
2022/12/30 07:31:48;;;;;;;2.07;1.20;;;;;;;8.48;61.45;97433.31;5053032;28;20230;-73
2022/12/30 07:34:13;;;;;;;2.60;1.60;;;;;;;8.44;60.91;97438.75;5051816;28;20294;-73
2022/12/30 07:36:39;;;;;;;1.43;1.33;;;;;;;8.34;60.66;97442.31;5051838;28;20285;-74
2022/12/30 07:39:06;;;;;;;6.30;1.50;;;;;;;8.32;60.61;97444.25;5051233;28;20657;-73
2022/12/30 07:41:32;;;;;;;2.33;1.67;;;;;;;8.34;60.52;97445.75;5054681;28;20175;-72
2022/12/30 07:43:58;;;;;;;2.50;1.90;;;;;;;8.35;60.45;97436.97;5052072;28;20414;-73
2022/12/30 07:46:23;;;;;;;6.43;2.50;;;;;;;8.31;61.12;97435.59;5051235;28;20790;-74
2022/12/30 07:48:48;;;;;;;2.60;2.30;;;;;;;8.40;61.18;97434.78;5051818;28;20262;-72
2022/12/30 07:51:15;;;;;;;3.00;1.70;;;;;;;8.42;61.13;97440.72;5051636;28;20254;-73
2022/12/30 07:53:41;;;;;;;2.17;1.97;;;;;;;8.48;61.29;97439.38;5052105;28;20245;-73
2022/12/30 07:56:09;;;;;;;3.90;1.80;;;;;;;8.52;60.92;97438.13;5051675;28;20425;-74
2022/12/30 07:58:35;;;;;;;2.83;2.17;;;;;;;8.54;61.13;97425.78;5066881;28;20199;-73
2022/12/30 08:01:07;;;;;;;4.10;2.30;;;;;;;8.58;61.11;97431.53;5052175;28;20486;-72
2022/12/30 08:03:33;;;;;;;3.10;2.50;;;;;;;8.74;61.13;97433.66;5047485;28;20615;-73
2022/12/30 08:06:06;;;;;;;2.40;2.13;;;;;;;9.01;61.28;97427.75;5051469;28;20418;-73
2022/12/30 08:08:33;;;;;;;2.67;2.00;;;;;;;9.20;60.33;97429.56;5044623;28;20689;-73
2022/12/30 08:10:59;;;;;;;1.90;1.80;;;;;;;9.50;60.26;97432.16;5056005;28;20417;-73
2022/12/30 08:13:24;;;;;;;2.33;1.60;;;;;;;9.97;59.58;97420.88;5051591;28;20500;-71
2022/12/30 08:15:50;;;;;;;2.10;1.57;;;;;;;10.39;58.22;97417.84;5052804;28;20417;-73
2022/12/30 08:18:15;;;;;;;1.93;1.40;;;;;;;10.74;57.21;97423.28;5052081;28;20203;-73
2022/12/30 08:20:41;;;;;;;3.40;1.63;;;;;;;11.09;56.43;97424.28;5050497;28;20644;-73
2022/12/30 08:23:06;;;;;;;2.13;1.73;;;;;;;11.42;55.26;97421.94;5050960;28;20175;-71
2022/12/30 08:25:33;;;;;;;2.80;1.70;;;;;;;11.60;54.43;97415.81;5051330;28;20610;-73
2022/12/30 08:27:58;;;;;;;2.60;1.73;;;;;;;11.74;53.92;97422.31;5032764;28;20580;-74
2022/12/30 08:30:24;;;;;;;2.70;1.70;;;;;;;12.14;53.33;97407.81;5051507;28;20457;-73
2022/12/30 08:32:49;;;;;;;2.13;1.90;;;;;;;12.49;53.06;97407.75;5051120;28;20684;-73
2022/12/30 08:35:15;;;;;;;2.20;2.00;;;;;;;12.68;52.15;97394.34;5050479;28;20210;-73
2022/12/30 08:37:41;;;;;;;1.93;1.50;;;;;;;12.72;51.92;97400.09;5050144;28;20195;-74
2022/12/30 08:40:07;;;;;;;2.47;1.40;;;;;;;12.87;51.35;97397.66;5052593;28;20188;-73
2022/12/30 08:42:34;;;;;;;2.23;1.57;;;;;;;12.89;50.62;97395.69;5057667;28;20917;-73
2022/12/30 08:45:00;;;;;;;1.77;1.50;;;;;;;12.82;51.49;97394.72;5050467;28;20426;-74
2022/12/30 08:47:25;;;;;;;2.70;1.53;;;;;;;12.93;51.05;97390.94;5049917;28;20960;-73
2022/12/30 08:49:51;;;;;;;1.50;1.10;;;;;;;13.13;50.33;97394.06;5049974;28;20262;-75
2022/12/30 08:52:16;;;;;;;2.73;1.47;;;;;;;12.97;50.58;97385.19;5049821;28;20617;-74
2022/12/30 08:54:42;;;;;;;1.40;1.23;;;;;;;12.93;49.92;97385.66;5050331;28;20242;-75
2022/12/30 08:57:08;;;;;;;2.37;1.27;;;;;;;13.06;50.37;97381.59;5064490;28;20205;-74
2022/12/30 08:59:34;;;;;;;3.03;1.40;;;;;;;12.94;51.44;97375.00;5065523;28;20183;-75
2022/12/30 09:01:59;;;;;;;1.43;1.30;;;;;;;13.00;51.18;97376.16;5050129;28;20448;-74
2022/12/30 09:04:25;;;;;;;2.57;1.43;;;;;;;13.12;51.24;97377.47;5049728;28;20182;-73
2022/12/30 09:06:50;;;;;;;2.13;1.40;;;;;;;13.15;50.48;97374.53;5049416;28;20194;-74
2022/12/30 09:09:16;;;;;;;1.43;1.33;;;;;;;13.38;50.27;97379.13;5049910;28;20596;-74
2022/12/30 09:11:43;;;;;;;1.50;1.40;;;;;;;13.72;49.83;97379.94;5049129;28;20175;-74
2022/12/30 09:14:10;;;;;;;2.43;1.67;;;;;;;13.83;49.55;97376.94;5049713;28;20207;-75
2022/12/30 09:16:36;;;;;;;2.03;1.20;;;;;;;13.92;49.31;97368.00;5048203;28;20509;-74
2022/12/30 09:19:02;;;;;;;1.47;1.00;;;;;;;14.02;48.33;97364.34;5049650;28;20555;-76
2022/12/30 09:21:27;;;;;;;1.67;1.03;;;;;;;13.91;48.42;97374.25;5030050;28;20658;-75
2022/12/30 09:23:53;;;;;;;1.40;1.10;;;;;;;14.03;49.07;97366.00;5050123;28;20421;-74
2022/12/30 09:26:21;;;;;;;1.30;1.07;;;;;;;14.10;48.78;97359.88;5048245;28;20206;-73
2022/12/30 09:28:47;;;;;;;1.63;1.00;;;;;;;14.34;47.75;97371.28;5050019;28;20203;-75
2022/12/30 09:31:13;;;;;;;3.67;1.20;;;;;;;14.40;48.07;97367.16;5001709;28;1115566;-73
2022/12/30 09:33:38;;;;;;;1.30;0.97;;;;;;;14.47;46.76;97368.13;5050196;28;20202;-73
2022/12/30 09:36:05;;;;;;;1.83;0.80;;;;;;;14.49;47.57;97362.66;5052161;28;20561;-72
2022/12/30 09:38:30;;;;;;;2.10;1.20;;;;;;;14.66;46.96;97358.94;5047480;28;20783;-73
2022/12/30 09:41:12;;;;;;;3.40;0.93;;;;;;;14.56;47.04;97359.16;5051017;28;20477;-73
2022/12/30 09:44:03;;;;;;;1.10;0.93;;;;;;;14.78;46.08;97342.75;5043248;28;20187;-72
2022/12/30 09:46:57;;;;;;;3.37;1.10;;;;;;;15.03;46.47;97341.56;5047591;28;20425;-72
2022/12/30 09:49:34;;;;;;;1.57;0.80;;;;;;;15.28;45.63;97341.34;5043899;28;20437;-72
2022/12/30 09:52:11;;;;;;;1.10;1.00;;;;;;;15.33;45.55;97336.34;5030746;28;20436;-72
2022/12/30 09:54:37;;;;;;;1.73;0.80;;;;;;;15.40;45.37;97333.00;5038004;28;20468;-72
2022/12/30 09:59:55;;;;;;;2.07;0.73;;;;;;;15.62;44.97;97312.81;5044948;28;20430;-73
2022/12/30 10:02:21;;;;;;;1.93;0.90;;;;;;;15.90;44.81;97310.34;5045807;28;20466;-72
2022/12/30 10:04:47;;;;;;;5.77;1.00;;;;;;;16.08;44.52;97304.69;5043061;28;20434;-73
2022/12/30 10:07:24;;;;;;;0.90;0.70;;;;;;;15.94;44.12;97300.22;5043833;28;20502;-73
2022/12/30 10:09:53;;;;;;;3.13;1.00;;;;;;;15.90;43.54;97293.66;5052324;28;20316;-74
2022/12/30 10:12:21;;;;;;;1.30;0.80;;;;;;;15.50;44.41;97288.66;5039548;28;20433;-74
2022/12/30 10:15:06;;;;;;;1.03;0.80;;;;;;;15.43;44.82;97288.53;5050800;28;20453;-74
2022/12/30 10:17:59;;;;;;;1.43;0.90;;;;;;;15.70;45.43;97275.72;5034334;28;20505;-73
2022/12/30 10:20:38;;;;;;;1.97;1.23;;;;;;;15.78;44.34;97274.78;5046347;28;20410;-73
2022/12/30 10:23:29;;;;;;;1.87;1.67;;;;;;;15.72;44.70;97271.06;5043308;28;20425;-73
2022/12/30 10:26:13;;;;;;;1.30;1.20;;;;;;;15.96;44.03;97263.88;5049950;28;20428;-73
2022/12/30 10:28:45;;;;;;;2.03;1.30;;;;;;;16.14;43.89;97258.16;5044674;28;20881;-74
2022/12/30 10:31:18;;;;;;;1.20;0.97;;;;;;;16.34;43.32;97241.69;5034010;28;20510;-73
2022/12/30 10:33:44;;;;;;;1.10;0.93;;;;;;;16.47;43.27;97251.59;5043811;28;20532;-73
2022/12/30 10:36:17;;;;;;;1.57;1.03;;;;;;;16.87;42.45;97252.75;5044624;28;20429;-73
2022/12/30 10:38:42;;;;;;;2.10;1.10;;;;;;;17.02;42.21;97238.66;5054399;28;20445;-73
2022/12/30 10:41:33;;;;;;;1.83;1.10;;;;;;;16.95;42.69;97241.25;5024409;28;20441;-73
2022/12/30 10:44:11;;;;;;;2.63;1.47;;;;;;;16.77;42.18;97233.75;5053333;28;20254;-73
2022/12/30 10:47:05;;;;;;;2.10;1.37;;;;;;;16.63;42.27;97238.13;5046118;28;20429;-74
2022/12/30 10:49:55;;;;;;;1.90;1.03;;;;;;;16.50;42.80;97241.44;5043674;28;20431;-74
2022/12/30 10:52:21;;;;;;;1.50;1.07;;;;;;;16.28;42.80;97243.25;5060652;28;20495;-74
2022/12/30 10:54:47;;;;;;;1.40;1.20;;;;;;;16.28;42.93;97230.03;5051047;28;21191;-74
2022/12/30 10:57:27;;;;;;;1.47;1.10;;;;;;;16.36;43.92;97224.66;5050308;28;20205;-74
2022/12/30 10:59:55;;;;;;;1.20;0.90;;;;;;;16.37;43.11;97223.63;5066282;28;20415;-74
2022/12/30 11:02:37;;;;;;;2.87;1.03;;;;;;;16.39;43.01;97218.94;5048142;28;20425;-73
2022/12/30 11:05:25;;;;;;;1.40;0.90;;;;;;;16.25;43.12;97217.22;5051069;28;20925;-74
2022/12/30 11:07:57;;;;;;;2.03;1.10;;;;;;;16.42;42.77;97220.44;5047018;28;20785;-74
2022/12/30 11:10:22;;;;;;;1.57;1.10;;;;;;;15.96;43.80;97213.66;5053972;28;20990;-72
2022/12/30 11:15:49;;;;;;;3.33;1.10;;;;;;;15.94;43.74;97210.38;5049069;28;20191;-74
2022/12/30 11:18:15;;;;;;;3.43;1.30;;;;;;;15.81;44.19;97211.81;5050834;28;20810;-74
2022/12/30 11:20:41;;;;;;;2.87;1.30;;;;;;;15.80;44.81;97210.19;5047110;28;21099;-74
2022/12/30 11:23:23;;;;;;;1.80;1.30;;;;;;;15.66;44.35;97214.50;5051967;28;21121;-74
2022/12/30 11:25:48;;;;;;;1.80;1.13;;;;;;;15.57;44.91;97209.50;5059445;28;20426;-74
2022/12/30 11:28:21;;;;;;;1.57;1.00;;;;;;;15.46;45.47;97203.69;5050431;28;20499;-73
2022/12/30 11:30:52;;;;;;;1.50;1.40;;;;;;;15.49;45.62;97197.22;5065017;28;20182;-75
2022/12/30 11:33:24;;;;;;;1.40;1.30;;;;;;;15.55;45.68;97195.66;5053372;28;20453;-74
2022/12/30 11:35:50;;;;;;;2.17;1.23;;;;;;;15.49;45.78;97192.75;5034400;28;20453;-74
2022/12/30 11:38:35;;;;;;;2.23;1.50;;;;;;;15.52;45.03;97194.22;5051591;28;20438;-73
2022/12/30 11:41:16;;;;;;;1.90;1.30;;;;;;;15.79;45.24;97192.69;5053956;28;20504;-74
2022/12/30 11:43:41;;;;;;;2.43;1.20;;;;;;;15.85;44.72;97183.22;5044203;28;21015;-74
2022/12/30 11:46:09;;;;;;;2.27;1.50;;;;;;;15.58;45.59;97179.44;5050422;28;20430;-74
2022/12/30 11:48:37;;;;;;;3.03;1.47;;;;;;;15.16;46.00;97169.34;5067450;28;20324;-73
2022/12/30 11:51:13;;;;;;;3.10;1.50;;;;;;;14.96;46.70;97165.63;5050670;28;20437;-72
2022/12/30 11:53:39;;;;;;;2.57;1.80;;;;;;;14.71;46.61;97157.97;5066861;28;20902;-73
2022/12/30 11:56:05;;;;;;;2.13;1.50;;;;;;;14.84;46.98;97158.16;5051677;28;20452;-73
2022/12/30 11:58:35;;;;;;;3.27;1.40;;;;;;;14.72;47.53;97170.16;5058270;28;20203;-74
2022/12/30 12:01:09;;;;;;;1.70;1.20;;;;;;;14.62;47.46;97180.13;5050785;28;20229;-73
2022/12/30 12:03:57;;;;;;;3.80;1.43;;;;;;;14.43;48.10;97167.22;5047955;28;20470;-72
2022/12/30 12:06:23;;;;;;;1.70;1.20;;;;;;;14.38;48.49;97158.22;5049509;28;20456;-74
2022/12/30 12:09:12;;;;;;;2.43;1.37;;;;;;;14.07;49.39;97159.13;5033849;28;21125;-74
2022/12/30 12:11:42;;;;;;;1.40;1.20;;;;;;;14.07;49.36;97157.28;5056671;28;20229;-73
2022/12/30 12:14:17;;;;;;;2.80;1.33;;;;;;;14.05;49.77;97150.56;5066698;28;20457;-74
2022/12/30 12:17:01;;;;;;;1.30;1.13;;;;;;;13.85;49.95;97143.13;5049908;28;20486;-75
2022/12/30 12:19:47;;;;;;;1.73;1.10;;;;;;;13.62;50.86;97145.72;5051966;28;20933;-74
2022/12/30 12:22:23;;;;;;;1.83;1.30;;;;;;;13.45;51.31;97143.19;5050318;28;20430;-74
2022/12/30 12:24:55;;;;;;;2.10;1.10;;;;;;;13.39;51.60;97137.75;5050262;28;20422;-73
2022/12/30 12:27:21;;;;;;;1.53;1.27;;;;;;;13.29;51.65;97130.09;5051970;28;20468;-74
2022/12/30 12:29:47;;;;;;;1.30;1.00;;;;;;;13.37;51.46;97120.31;5054248;28;20461;-73
2022/12/30 12:32:35;;;;;;;3.57;1.20;;;;;;;13.32;51.96;97122.66;5054519;28;20445;-74
2022/12/30 12:35:28;;;;;;;1.40;1.00;;;;;;;13.28;52.04;97110.00;5050796;28;20194;-73
2022/12/30 12:38:08;;;;;;;1.80;1.07;;;;;;;13.45;51.60;97116.03;5049295;28;20828;-74
2022/12/30 12:41:02;;;;;;;1.40;1.13;;;;;;;13.39;51.76;97116.69;5047565;28;20502;-73
2022/12/30 12:43:39;;;;;;;1.40;0.93;;;;;;;13.42;51.51;97106.66;5049183;28;20548;-73
2022/12/30 12:46:11;;;;;;;1.50;1.37;;;;;;;13.50;51.46;97108.44;5050450;28;20905;-73
2022/12/30 12:49:08;;;;;;;1.40;1.10;;;;;;;13.40;51.45;97121.00;5051401;28;20815;-73